createdAt,value
2018-12-20T13:22:37.324Z,71.18
2018-12-20T13:25:06.600Z,70.22
2018-12-20T13:27:36.145Z,70.91
2018-12-20T13:31:43.969Z,69.53
2018-12-20T13:34:12.553Z,69.86
2018-12-20T17:35:11.152Z,85.16
2018-12-20T17:37:39.884Z,84.50
2018-12-20T17:40:08.830Z,84.58
2018-12-20T17:42:37.517Z,83.99
2018-12-20T17:45:07.775Z,82.76
2018-12-20T17:47:36.603Z,82.12
2018-12-20T17:50:07.455Z,81.89
2018-12-20T17:52:36.066Z,81.65
2018-12-20T17:55:05.629Z,82.11
2018-12-20T17:57:34.418Z,82.23
2018-12-20T18:00:03.283Z,82.52
2018-12-20T18:02:31.944Z,82.30
2018-12-20T18:05:06.920Z,81.92
2018-12-20T18:07:31.412Z,82.05
2018-12-20T18:10:01.081Z,81.37
2018-12-20T18:12:29.891Z,81.17
2018-12-20T18:14:59.764Z,80.77
2018-12-20T18:17:28.511Z,80.98
2018-12-20T18:19:57.450Z,80.65
2018-12-20T18:22:26.799Z,81.03
2018-12-20T18:24:55.777Z,81.09
2018-12-20T18:27:24.414Z,81.71
2018-12-20T18:29:53.043Z,81.52
2018-12-20T18:32:21.805Z,81.25
2018-12-20T18:34:50.520Z,80.84
2018-12-20T18:37:19.169Z,80.85
2018-12-20T18:39:47.866Z,80.62
2018-12-20T18:42:16.526Z,80.87
2018-12-20T18:44:45.150Z,81.00
2018-12-20T18:47:13.748Z,81.33
2018-12-20T18:49:47.479Z,81.25
2018-12-20T18:52:16.255Z,81.20
2018-12-20T18:54:44.957Z,81.25
2018-12-20T18:57:13.646Z,81.59
2018-12-20T18:59:42.724Z,81.73
2018-12-20T19:02:11.567Z,82.10
2018-12-20T19:04:40.343Z,82.03
2018-12-20T19:07:08.930Z,81.91
2018-12-20T19:09:37.593Z,81.69
2018-12-20T19:12:06.431Z,81.59
2018-12-20T19:14:36.256Z,81.78
2018-12-20T19:17:05.175Z,81.83
2018-12-20T19:19:33.829Z,81.74
2018-12-20T19:22:02.598Z,81.57
2018-12-20T19:24:31.413Z,81.63
2018-12-20T19:27:00.178Z,81.69
2018-12-20T19:29:28.813Z,81.64
2018-12-20T19:31:57.995Z,81.65
2018-12-20T19:34:26.868Z,81.95
2018-12-20T19:36:55.558Z,81.56
2018-12-20T19:39:25.864Z,81.77
2018-12-20T19:41:56.757Z,81.67
2018-12-20T19:44:25.551Z,81.40
2018-12-20T19:46:54.807Z,81.50
2018-12-20T19:49:23.416Z,81.75
2018-12-20T19:51:52.158Z,82.37
2018-12-20T19:54:20.883Z,82.63
2018-12-20T19:56:49.483Z,82.69
2018-12-20T19:59:18.139Z,82.88
2018-12-20T20:01:46.773Z,83.21
2018-12-20T20:04:15.382Z,82.92
2018-12-20T20:06:44.022Z,83.29
2018-12-20T20:09:12.641Z,82.85
2018-12-20T20:11:41.282Z,83.33
2018-12-20T20:14:09.945Z,82.76
2018-12-20T20:16:38.564Z,82.96
2018-12-20T20:19:07.219Z,82.92
2018-12-20T20:21:36.625Z,83.22
2018-12-20T20:24:06.044Z,83.19
2018-12-20T20:26:34.721Z,83.07
2018-12-20T20:29:03.788Z,83.04
2018-12-20T20:31:32.491Z,83.32
2018-12-20T20:34:48.804Z,83.00
2018-12-20T20:37:17.459Z,83.04
2018-12-20T20:42:44.851Z,83.90
2018-12-20T20:45:13.581Z,83.35
2018-12-20T20:47:42.286Z,83.24
2018-12-20T20:50:10.927Z,83.32
2018-12-20T20:52:39.566Z,83.05
2018-12-20T20:55:09.220Z,83.21
2018-12-20T20:57:37.858Z,83.58
2018-12-20T21:00:12.903Z,83.78
2018-12-20T21:02:41.845Z,83.87
2018-12-20T21:05:11.154Z,83.82
2018-12-20T21:07:39.874Z,84.25
2018-12-20T21:10:10.341Z,84.01
2018-12-20T21:12:39.048Z,83.85
2018-12-20T21:15:11.524Z,83.84
2018-12-20T21:17:40.330Z,83.74
2018-12-20T21:20:12.940Z,83.87
2018-12-20T21:22:43.523Z,83.67
2018-12-20T21:25:12.504Z,83.45
2018-12-20T21:27:41.323Z,83.52
2018-12-20T21:30:11.491Z,83.29
2018-12-20T21:32:40.235Z,83.84
2018-12-20T21:35:09.441Z,83.89
2018-12-20T21:37:38.127Z,83.71
2018-12-20T21:40:07.897Z,84.01
2018-12-20T21:42:46.657Z,83.32
2018-12-20T21:45:15.249Z,83.44
2018-12-20T21:47:43.948Z,83.28
2018-12-20T21:50:13.663Z,82.87
2018-12-20T21:52:43.360Z,82.49
2018-12-20T21:55:12.160Z,82.67
2018-12-20T21:57:40.811Z,82.33
2018-12-20T22:00:11.432Z,82.48
2018-12-20T22:02:40.146Z,82.52
2018-12-20T22:05:08.880Z,83.20
2018-12-20T22:07:37.482Z,83.51
2018-12-20T22:10:07.407Z,83.19
2018-12-20T22:12:39.267Z,83.47
2018-12-20T22:15:08.200Z,83.80
2018-12-20T22:17:36.774Z,84.10
2018-12-20T22:20:06.863Z,84.18
2018-12-20T22:22:35.583Z,84.08
2018-12-20T22:25:04.586Z,83.79
2018-12-20T22:27:33.137Z,84.13
2018-12-20T22:30:01.901Z,84.61
2018-12-20T22:32:30.533Z,84.67
2018-12-20T22:34:59.212Z,85.06
2018-12-20T22:37:27.888Z,84.92
2018-12-20T22:39:56.586Z,84.78
2018-12-20T22:42:25.181Z,84.90
2018-12-20T22:44:53.841Z,84.65
2018-12-20T22:47:22.471Z,100.00
2018-12-20T22:49:51.066Z,89.04
2018-12-20T22:52:19.691Z,88.21
2018-12-20T22:54:48.280Z,88.46
2018-12-20T22:57:16.951Z,88.27
2018-12-20T22:59:45.628Z,88.13
2018-12-20T23:02:18.014Z,88.77
2018-12-20T23:04:44.954Z,88.41
2018-12-20T23:07:14.343Z,88.86
2018-12-20T23:09:42.912Z,88.39
2018-12-20T23:12:11.534Z,87.99
2018-12-20T23:14:40.122Z,88.00
2018-12-20T23:17:08.746Z,87.44
2018-12-20T23:19:37.451Z,88.04
2018-12-20T23:22:06.056Z,88.10
2018-12-20T23:24:34.820Z,87.73
2018-12-20T23:27:03.444Z,88.50
2018-12-20T23:29:32.142Z,88.46
2018-12-20T23:32:00.897Z,87.90
2018-12-20T23:34:29.531Z,88.70
2018-12-20T23:36:58.263Z,88.79
2018-12-20T23:39:26.935Z,88.95
2018-12-20T23:41:55.563Z,88.63
2018-12-20T23:44:24.174Z,88.01
2018-12-20T23:46:52.810Z,87.83
2018-12-20T23:49:21.434Z,87.92
2018-12-20T23:51:50.038Z,87.78
2018-12-20T23:54:18.881Z,87.74
2018-12-20T23:56:47.505Z,88.23
